Time;durP1;ratioP1;P1;durP2;ratioP2;P2;SDS_P1;SDS_P2;PMS_P1;PMS_P2;Temp;Humidity;BMP_temperature;BMP_pressure;BME280_temperature;BME280_humidity;BME280_pressure;Samples;Min_cycle;Max_cycle;Signal;HPM_P1;HPM_P2
2021/10/10 00:01:48;;;;;;;38.17;31.52;;;8.10;88.20;;;;;;5013804;28;20464;-75
2021/10/10 00:04:14;;;;;;;40.78;32.15;;;8.10;88.30;;;;;;5009589;28;20030;-75
2021/10/10 00:06:40;;;;;;;38.70;31.25;;;8.10;88.30;;;;;;5011334;28;20034;-75
2021/10/10 00:09:05;;;;;;;38.20;31.45;;;8.00;88.30;;;;;;5011014;28;20050;-78
2021/10/10 00:11:31;;;;;;;37.17;30.42;;;7.90;88.30;;;;;;5006414;28;20030;-78
2021/10/10 00:13:57;;;;;;;38.42;32.28;;;7.90;88.30;;;;;;5009507;28;20428;-76
2021/10/10 00:16:23;;;;;;;35.25;29.33;;;7.90;88.20;;;;;;5010771;28;20058;-76
2021/10/10 00:18:49;;;;;;;34.38;29.60;;;7.80;88.10;;;;;;5011035;28;20038;-77
2021/10/10 00:21:15;;;;;;;34.28;29.55;;;7.80;88.10;;;;;;5009741;28;20030;-77
2021/10/10 00:23:41;;;;;;;39.88;33.03;;;7.70;88.10;;;;;;5010001;28;20121;-77
2021/10/10 00:26:07;;;;;;;39.25;34.00;;;7.70;88.20;;;;;;5009168;28;20121;-79
2021/10/10 00:28:32;;;;;;;40.25;33.85;;;7.70;88.20;;;;;;4994599;28;20045;-75
2021/10/10 00:30:58;;;;;;;40.85;33.97;;;7.70;88.10;;;;;;5012185;28;20030;-75
2021/10/10 00:33:25;;;;;;;43.60;36.15;;;7.60;88.20;;;;;;5011885;28;20117;-74
2021/10/10 00:35:50;;;;;;;37.78;32.53;;;7.60;88.20;;;;;;5010959;28;20036;-74
2021/10/10 00:38:16;;;;;;;37.78;32.75;;;7.60;88.20;;;;;;5009578;28;20067;-77
2021/10/10 00:40:42;;;;;;;36.38;31.67;;;7.60;88.30;;;;;;5011284;28;20029;-75
2021/10/10 00:43:08;;;;;;;34.95;31.17;;;7.60;88.30;;;;;;5010329;28;20038;-75
2021/10/10 00:45:34;;;;;;;34.60;30.85;;;7.50;88.30;;;;;;5011547;28;20030;-76
2021/10/10 00:48:01;;;;;;;35.15;31.02;;;7.50;88.30;;;;;;5009660;28;20061;-75
2021/10/10 00:50:28;;;;;;;49.30;36.53;;;7.50;88.30;;;;;;5008797;28;20034;-75
2021/10/10 00:52:54;;;;;;;47.50;36.30;;;7.50;88.40;;;;;;5014999;28;20042;-75
2021/10/10 00:55:21;;;;;;;42.63;34.05;;;7.40;88.50;;;;;;5010449;28;20042;-75
2021/10/10 00:57:49;;;;;;;45.67;36.35;;;7.40;88.60;;;;;;5008632;28;20057;-75
2021/10/10 01:00:16;;;;;;;42.25;33.83;;;7.40;88.60;;;;;;4992436;28;20122;-75
2021/10/10 01:02:43;;;;;;;48.15;37.20;;;7.40;88.70;;;;;;5008725;28;20042;-75
2021/10/10 01:05:13;;;;;;;46.15;37.05;;;7.40;88.70;;;;;;5009713;28;20508;-75
2021/10/10 01:07:39;;;;;;;52.10;39.13;;;7.40;88.60;;;;;;5008061;28;20041;-76
2021/10/10 01:10:07;;;;;;;50.90;38.03;;;7.40;88.60;;;;;;5009703;28;20064;-75
2021/10/10 01:12:33;;;;;;;53.70;39.30;;;7.40;88.90;;;;;;5009250;28;20045;-79
2021/10/10 01:15:00;;;;;;;48.90;37.92;;;7.30;88.90;;;;;;5008985;28;20026;-75
2021/10/10 01:17:26;;;;;;;46.70;36.70;;;7.40;88.80;;;;;;5010462;28;20034;-75
2021/10/10 01:19:53;;;;;;;51.83;38.90;;;7.30;88.80;;;;;;5010273;28;20056;-75
2021/10/10 01:22:19;;;;;;;64.60;43.55;;;7.40;88.80;;;;;;5004733;28;20031;-76
2021/10/10 01:24:45;;;;;;;60.50;43.08;;;7.40;88.90;;;;;;5009100;28;20029;-75
2021/10/10 01:27:13;;;;;;;63.13;44.60;;;7.40;89.00;;;;;;5010404;28;20034;-74
2021/10/10 01:29:38;;;;;;;76.57;48.03;;;7.40;89.10;;;;;;5009846;28;20030;-74
2021/10/10 01:32:05;;;;;;;68.65;45.78;;;7.40;89.10;;;;;;5008511;28;20096;-75
2021/10/10 01:34:31;;;;;;;65.75;46.85;;;7.40;89.20;;;;;;5002520;28;20030;-74
2021/10/10 01:36:57;;;;;;;60.55;44.13;;;7.40;89.30;;;;;;5008587;28;20044;-75
2021/10/10 01:39:22;;;;;;;53.85;41.83;;;7.40;89.40;;;;;;5004494;28;20041;-76
2021/10/10 01:41:48;;;;;;;49.28;40.72;;;7.40;89.50;;;;;;5008073;28;20030;-75
2021/10/10 01:44:16;;;;;;;52.97;40.38;;;7.40;89.60;;;;;;5008408;28;20473;-75
2021/10/10 01:46:42;;;;;;;86.15;43.78;;;7.40;89.60;;;;;;5008158;28;20037;-74
2021/10/10 01:49:09;;;;;;;49.42;39.30;;;7.40;89.70;;;;;;5008919;28;20050;-75
2021/10/10 01:51:35;;;;;;;50.15;40.85;;;7.40;89.70;;;;;;5010362;28;20042;-80
2021/10/10 01:54:01;;;;;;;56.42;41.00;;;7.40;89.80;;;;;;5009409;28;20046;-75
2021/10/10 01:56:28;;;;;;;53.13;43.15;;;7.40;90.00;;;;;;5011082;28;20152;-76
2021/10/10 01:58:53;;;;;;;49.67;38.95;;;7.40;90.10;;;;;;5008721;28;20060;-76
2021/10/10 02:01:19;;;;;;;48.58;39.53;;;7.40;90.00;;;;;;5009278;28;20053;-74
2021/10/10 02:03:45;;;;;;;51.20;39.70;;;7.40;90.00;;;;;;5008466;28;20030;-75
2021/10/10 02:06:11;;;;;;;52.72;40.28;;;7.40;90.00;;;;;;5008252;28;20044;-75
2021/10/10 02:08:36;;;;;;;53.53;42.60;;;7.30;90.00;;;;;;5005546;28;20038;-77
2021/10/10 02:11:02;;;;;;;53.95;39.78;;;7.30;90.10;;;;;;4992782;28;20069;-76
2021/10/10 02:13:28;;;;;;;64.60;43.67;;;7.30;90.20;;;;;;5006050;28;20124;-74
2021/10/10 02:15:53;;;;;;;51.72;41.08;;;7.30;90.20;;;;;;5009233;28;20029;-74
2021/10/10 02:18:19;;;;;;;48.78;38.38;;;7.50;89.80;;;;;;5007383;28;20048;-77
2021/10/10 02:20:45;;;;;;;56.22;41.05;;;7.60;89.50;;;;;;5007569;28;20037;-75
2021/10/10 02:23:10;;;;;;;58.95;41.83;;;7.40;89.50;;;;;;5001941;28;20029;-76
2021/10/10 02:25:36;;;;;;;49.40;39.45;;;7.30;89.90;;;;;;5006284;28;20037;-79
2021/10/10 02:28:02;;;;;;;53.47;40.03;;;7.20;90.10;;;;;;5006968;28;20034;-76
2021/10/10 02:30:28;;;;;;;51.17;39.80;;;7.10;90.20;;;;;;5006312;28;20061;-75
2021/10/10 02:32:53;;;;;;;46.55;37.13;;;7.20;90.40;;;;;;5006093;28;20026;-74
2021/10/10 02:35:19;;;;;;;48.13;36.97;;;7.10;90.40;;;;;;5007909;28;20029;-80
2021/10/10 02:37:45;;;;;;;45.35;38.10;;;7.10;90.40;;;;;;5008093;28;20073;-74
2021/10/10 02:40:11;;;;;;;41.55;34.85;;;7.10;90.50;;;;;;5004230;28;20489;-75
2021/10/10 02:42:37;;;;;;;50.78;36.13;;;7.10;90.50;;;;;;5007640;28;20021;-79
2021/10/10 02:45:04;;;;;;;38.72;32.85;;;7.10;90.30;;;;;;5006254;28;20466;-76
2021/10/10 02:47:30;;;;;;;36.97;32.97;;;7.10;90.20;;;;;;5009598;28;20042;-74
2021/10/10 02:49:55;;;;;;;36.45;32.67;;;7.10;90.20;;;;;;5008188;28;20026;-75
2021/10/10 02:52:23;;;;;;;33.83;30.30;;;7.00;90.10;;;;;;5008985;28;20038;-75
2021/10/10 02:54:49;;;;;;;42.88;30.98;;;7.00;90.00;;;;;;5005187;28;20030;-80
2021/10/10 02:57:15;;;;;;;35.30;31.63;;;7.10;89.60;;;;;;5005811;28;20091;-77
2021/10/10 02:59:40;;;;;;;35.03;31.40;;;7.20;89.50;;;;;;5013167;28;20126;-75
2021/10/10 03:02:06;;;;;;;69.63;36.50;;;7.20;89.40;;;;;;5008338;28;20038;-76
2021/10/10 03:04:32;;;;;;;76.78;35.72;;;7.20;89.20;;;;;;4987782;28;20038;-76
2021/10/10 03:06:57;;;;;;;59.08;34.88;;;7.20;89.30;;;;;;4990582;28;20041;-76
2021/10/10 03:09:23;;;;;;;51.17;34.25;;;7.20;89.40;;;;;;5004478;28;20050;-76
2021/10/10 03:11:49;;;;;;;62.85;34.53;;;7.20;89.30;;;;;;5007277;28;20034;-75
2021/10/10 03:14:15;;;;;;;63.95;35.20;;;7.10;89.10;;;;;;5007570;28;20042;-76
2021/10/10 03:16:40;;;;;;;36.60;32.70;;;7.20;89.30;;;;;;4992759;28;20041;-75
2021/10/10 03:19:06;;;;;;;36.60;32.33;;;7.20;89.30;;;;;;5005326;28;20421;-74
2021/10/10 03:21:32;;;;;;;39.47;32.78;;;7.20;89.30;;;;;;5008195;28;20117;-75
2021/10/10 03:23:57;;;;;;;33.67;30.17;;;7.20;89.10;;;;;;5008963;28;20531;-75
2021/10/10 03:26:23;;;;;;;37.13;32.35;;;7.10;89.20;;;;;;5007513;28;20049;-75
2021/10/10 03:28:49;;;;;;;36.75;32.50;;;7.10;89.20;;;;;;5007922;28;20034;-75
2021/10/10 03:31:15;;;;;;;35.88;32.05;;;7.20;89.30;;;;;;5007348;28;20030;-76
2021/10/10 03:33:40;;;;;;;36.83;31.33;;;7.20;89.20;;;;;;5005898;28;20569;-79
2021/10/10 03:36:06;;;;;;;49.38;33.80;;;7.20;89.30;;;;;;5007131;28;20100;-75
2021/10/10 03:38:32;;;;;;;37.85;32.53;;;7.20;89.10;;;;;;5004899;28;20593;-74
2021/10/10 03:40:58;;;;;;;35.25;31.45;;;7.20;89.10;;;;;;5008067;28;20520;-74
2021/10/10 03:43:24;;;;;;;52.17;34.78;;;7.20;89.10;;;;;;5007969;28;20473;-75
2021/10/10 03:45:49;;;;;;;34.47;30.17;;;7.20;89.00;;;;;;5008498;28;20042;-76
2021/10/10 03:48:15;;;;;;;35.38;31.38;;;7.20;89.20;;;;;;5010056;28;20535;-77
2021/10/10 03:50:40;;;;;;;37.58;33.25;;;7.20;89.30;;;;;;5011451;28;20061;-76
2021/10/10 03:53:06;;;;;;;43.78;35.03;;;7.20;89.40;;;;;;5011240;28;20113;-76
2021/10/10 03:57:58;;;;;;;35.90;32.05;;;7.20;89.40;;;;;;5011679;28;20049;-77
2021/10/10 04:00:25;;;;;;;34.60;30.92;;;7.30;89.30;;;;;;5012968;28;20099;-76
2021/10/10 04:02:51;;;;;;;37.80;33.88;;;7.20;89.20;;;;;;5008095;28;20038;-75
2021/10/10 04:05:20;;;;;;;38.85;33.05;;;7.20;89.20;;;;;;5007077;28;20108;-76
2021/10/10 04:07:47;;;;;;;35.58;31.75;;;7.20;89.10;;;;;;4994767;28;20045;-76
2021/10/10 04:10:12;;;;;;;50.65;33.08;;;7.20;89.20;;;;;;5008554;28;20121;-77
2021/10/10 04:12:38;;;;;;;31.60;28.50;;;7.20;89.20;;;;;;5008708;28;20165;-77
2021/10/10 04:15:05;;;;;;;31.30;28.10;;;7.20;89.00;;;;;;5011234;28;20065;-77
2021/10/10 04:17:30;;;;;;;33.22;29.80;;;7.20;88.90;;;;;;5009259;28;20026;-76
2021/10/10 04:19:56;;;;;;;33.17;29.73;;;7.20;89.10;;;;;;5011020;28;20044;-74
2021/10/10 04:22:21;;;;;;;66.28;32.35;;;7.20;89.20;;;;;;5002254;28;20038;-79
2021/10/10 04:24:47;;;;;;;31.85;28.55;;;7.20;89.30;;;;;;4993686;28;20042;-74
2021/10/10 04:27:13;;;;;;;34.65;28.90;;;7.20;89.30;;;;;;5010776;28;20515;-74
2021/10/10 04:29:38;;;;;;;30.88;27.85;;;7.20;89.30;;;;;;5006751;28;20084;-76
2021/10/10 04:32:04;;;;;;;38.80;30.50;;;7.20;89.30;;;;;;5009627;28;20041;-75
2021/10/10 04:34:30;;;;;;;61.45;34.38;;;7.20;89.20;;;;;;5011429;28;20074;-75
2021/10/10 04:36:56;;;;;;;32.88;29.67;;;7.20;89.50;;;;;;5001494;28;20092;-78
2021/10/10 04:39:21;;;;;;;31.23;28.13;;;7.20;89.60;;;;;;5009400;28;20430;-74
2021/10/10 04:41:47;;;;;;;31.77;28.48;;;7.30;89.50;;;;;;5011210;28;20034;-74
2021/10/10 04:44:13;;;;;;;34.67;31.00;;;7.30;89.60;;;;;;5008065;28;20033;-74
2021/10/10 04:46:38;;;;;;;32.67;29.40;;;7.30;89.50;;;;;;5010823;28;20030;-75
2021/10/10 04:49:04;;;;;;;32.25;29.05;;;7.30;89.60;;;;;;5011160;28;20076;-77
2021/10/10 04:51:30;;;;;;;30.15;27.15;;;7.30;89.40;;;;;;4993755;28;20151;-74
2021/10/10 04:53:56;;;;;;;31.08;28.08;;;7.30;89.40;;;;;;5011259;28;20056;-75
2021/10/10 04:56:22;;;;;;;33.53;29.58;;;7.30;89.40;;;;;;5011380;28;20034;-74
2021/10/10 04:58:48;;;;;;;43.97;30.17;;;7.20;89.40;;;;;;5009185;28;20048;-74
2021/10/10 05:01:14;;;;;;;32.45;29.15;;;7.20;89.50;;;;;;5010905;28;20109;-75
2021/10/10 05:03:40;;;;;;;30.42;27.48;;;7.20;89.60;;;;;;5006412;28;20117;-77
2021/10/10 05:06:05;;;;;;;31.88;28.70;;;7.20;89.50;;;;;;4991265;28;20052;-75
2021/10/10 05:08:31;;;;;;;39.08;30.13;;;7.30;89.60;;;;;;5009922;28;20057;-75
2021/10/10 05:10:57;;;;;;;31.00;27.95;;;7.20;89.60;;;;;;5010143;28;20434;-75
2021/10/10 05:13:22;;;;;;;30.63;27.52;;;7.20;89.60;;;;;;5009396;28;20124;-74
2021/10/10 05:15:48;;;;;;;52.45;28.90;;;7.20;89.60;;;;;;5009704;28;20045;-76
2021/10/10 05:18:14;;;;;;;41.97;29.52;;;7.20;89.40;;;;;;5007427;28;20042;-74
2021/10/10 05:20:39;;;;;;;29.05;26.25;;;7.10;88.90;;;;;;5010428;28;20030;-75
2021/10/10 05:23:05;;;;;;;30.60;27.38;;;6.90;89.10;;;;;;5007341;28;20493;-74
2021/10/10 05:25:31;;;;;;;59.70;31.30;;;7.00;89.40;;;;;;5008517;28;20409;-75
2021/10/10 05:27:56;;;;;;;30.73;27.52;;;7.00;89.40;;;;;;5006818;28;20424;-75
2021/10/10 05:30:22;;;;;;;36.17;30.50;;;7.00;89.30;;;;;;5007021;28;20038;-74
2021/10/10 05:32:48;;;;;;;32.92;29.42;;;7.00;89.30;;;;;;4996455;28;20033;-76
2021/10/10 05:35:13;;;;;;;31.77;28.38;;;7.00;89.40;;;;;;5008737;28;20527;-75
2021/10/10 05:37:39;;;;;;;33.22;29.50;;;7.00;89.30;;;;;;5006356;28;20130;-75
2021/10/10 05:40:05;;;;;;;35.80;31.30;;;7.00;89.40;;;;;;5003862;28;20042;-75
2021/10/10 05:42:32;;;;;;;41.67;31.45;;;7.00;89.40;;;;;;5009247;28;20038;-76
2021/10/10 05:44:59;;;;;;;34.22;29.48;;;7.00;89.40;;;;;;5009190;28;20049;-77
2021/10/10 05:47:25;;;;;;;39.67;31.23;;;7.00;89.40;;;;;;5008694;28;20061;-75
2021/10/10 05:49:51;;;;;;;32.50;28.85;;;7.00;89.50;;;;;;5011641;28;20041;-76
2021/10/10 05:52:22;;;;;;;35.17;29.90;;;7.00;89.50;;;;;;5008206;28;20053;-74
2021/10/10 05:54:48;;;;;;;34.47;29.50;;;7.10;89.50;;;;;;5009012;28;20038;-74
2021/10/10 05:57:16;;;;;;;72.00;30.63;;;7.10;89.30;;;;;;5007938;28;20038;-74
2021/10/10 05:59:42;;;;;;;42.50;29.85;;;6.90;89.00;;;;;;5011205;28;20041;-77
2021/10/10 06:02:09;;;;;;;33.78;30.23;;;7.00;89.30;;;;;;5008343;28;20037;-78
2021/10/10 06:04:34;;;;;;;46.42;30.10;;;6.90;89.20;;;;;;5008009;28;20109;-76
2021/10/10 06:07:00;;;;;;;45.63;32.33;;;6.90;89.20;;;;;;5007023;28;20133;-72
2021/10/10 06:09:25;;;;;;;35.28;30.92;;;6.90;89.40;;;;;;5006809;28;20050;-71
2021/10/10 06:11:51;;;;;;;41.85;32.33;;;7.00;89.50;;;;;;5006517;28;20030;-73
2021/10/10 06:14:17;;;;;;;78.15;33.97;;;7.00;89.50;;;;;;5005383;28;20026;-71
2021/10/10 06:16:43;;;;;;;33.80;29.58;;;7.00;89.50;;;;;;5007637;28;20038;-74
2021/10/10 06:19:09;;;;;;;72.00;33.05;;;7.10;89.50;;;;;;5003435;28;20045;-70
2021/10/10 06:21:34;;;;;;;54.30;31.17;;;7.10;89.50;;;;;;5007605;28;20117;-71
2021/10/10 06:24:00;;;;;;;40.55;31.52;;;7.10;89.40;;;;;;5005001;28;20040;-72
2021/10/10 06:26:26;;;;;;;66.82;31.70;;;7.20;89.30;;;;;;5006414;28;20105;-71
2021/10/10 06:28:51;;;;;;;32.88;29.38;;;7.30;89.30;;;;;;5006756;28;20042;-74
2021/10/10 06:31:17;;;;;;;75.93;34.80;;;7.30;89.30;;;;;;5004848;28;20034;-76
2021/10/10 06:33:43;;;;;;;69.93;31.30;;;7.30;89.20;;;;;;4990072;28;20042;-72
2021/10/10 06:36:09;;;;;;;117.65;37.45;;;7.40;88.90;;;;;;5006546;28;20087;-71
2021/10/10 06:38:34;;;;;;;272.70;40.58;;;7.40;89.00;;;;;;5004860;28;20106;-71
2021/10/10 06:41:00;;;;;;;74.25;34.17;;;7.40;88.70;;;;;;5003028;28;20037;-74
2021/10/10 06:43:26;;;;;;;36.47;32.58;;;7.30;88.80;;;;;;5003610;28;20109;-71
2021/10/10 06:45:51;;;;;;;43.60;32.13;;;7.40;88.90;;;;;;5009700;28;20025;-71
2021/10/10 06:48:17;;;;;;;48.05;30.85;;;7.40;88.70;;;;;;5006148;28;20042;-72
2021/10/10 06:50:43;;;;;;;35.20;30.67;;;7.50;88.80;;;;;;5007537;28;20676;-71
2021/10/10 06:53:09;;;;;;;33.72;29.27;;;7.50;88.70;;;;;;5004420;28;20038;-72
2021/10/10 06:55:34;;;;;;;62.33;30.85;;;7.60;88.70;;;;;;5005190;28;20054;-78
2021/10/10 06:58:00;;;;;;;104.07;31.95;;;7.60;88.30;;;;;;5004236;28;20048;-71
2021/10/10 07:00:26;;;;;;;36.13;30.25;;;7.60;88.20;;;;;;5004132;28;20060;-74
2021/10/10 07:02:51;;;;;;;39.38;33.05;;;7.60;88.30;;;;;;5004604;28;20513;-72
2021/10/10 07:05:18;;;;;;;63.38;33.40;;;7.70;88.40;;;;;;5005831;28;20049;-72
2021/10/10 07:07:45;;;;;;;32.35;28.92;;;7.80;88.20;;;;;;5005696;28;20165;-72
2021/10/10 07:10:11;;;;;;;46.67;33.40;;;7.80;88.10;;;;;;5006328;28;20054;-73
2021/10/10 07:12:37;;;;;;;33.03;29.52;;;7.90;88.30;;;;;;5006206;28;20038;-77
2021/10/10 07:15:06;;;;;;;31.95;28.63;;;8.00;88.10;;;;;;5005777;28;20042;-74
2021/10/10 07:17:32;;;;;;;32.72;29.27;;;8.00;88.10;;;;;;5006198;28;20034;-72
2021/10/10 07:20:23;;;;;;;35.15;30.38;;;8.10;88.10;;;;;;4990925;28;20042;-73
2021/10/10 07:25:44;;;;;;;68.70;33.83;;;8.20;87.70;;;;;;4981158;28;20046;-74
2021/10/10 07:28:09;;;;;;;35.30;30.95;;;8.20;87.60;;;;;;5010104;28;20096;-73
2021/10/10 07:30:35;;;;;;;34.83;31.10;;;8.30;87.50;;;;;;5010070;28;20041;-73
2021/10/10 07:33:01;;;;;;;49.78;34.95;;;8.40;87.70;;;;;;5010157;28;20129;-75
2021/10/10 07:35:26;;;;;;;53.25;35.67;;;8.50;87.80;;;;;;5011781;28;20041;-72
2021/10/10 07:37:52;;;;;;;59.65;33.90;;;8.60;87.60;;;;;;5001882;28;20034;-73
2021/10/10 07:40:18;;;;;;;46.10;31.48;;;8.60;86.90;;;;;;5007878;28;20045;-71
2021/10/10 07:42:43;;;;;;;54.22;32.67;;;8.60;87.20;;;;;;4991946;28;20038;-80
2021/10/10 07:45:17;;;;;;;45.58;32.75;;;8.60;86.90;;;;;;4992016;28;20068;-72
2021/10/10 07:50:10;;;;;;;38.42;34.22;;;8.80;87.60;;;;;;5010461;28;20095;-72
2021/10/10 07:52:37;;;;;;;47.38;36.30;;;8.90;87.60;;;;;;5009099;28;20468;-73
2021/10/10 07:55:04;;;;;;;42.95;35.03;;;9.10;87.50;;;;;;5010854;28;20085;-72
2021/10/10 07:57:30;;;;;;;48.38;36.13;;;9.30;87.20;;;;;;5012926;28;20049;-75
2021/10/10 07:59:56;;;;;;;70.00;34.75;;;9.50;87.00;;;;;;5012279;28;20155;-74
2021/10/10 08:02:22;;;;;;;50.45;36.70;;;9.60;86.10;;;;;;5011626;28;20036;-72
2021/10/10 08:04:47;;;;;;;52.40;37.13;;;9.70;86.20;;;;;;5010981;28;20041;-76
2021/10/10 08:07:13;;;;;;;43.20;34.38;;;9.90;86.00;;;;;;5011778;28;20041;-73
2021/10/10 08:09:38;;;;;;;43.17;36.33;;;9.90;85.60;;;;;;5007643;28;20037;-71
2021/10/10 08:12:04;;;;;;;45.03;37.70;;;10.10;85.90;;;;;;5008127;28;20033;-71
2021/10/10 08:14:30;;;;;;;43.58;34.95;;;10.20;85.50;;;;;;5009216;28;20037;-71
2021/10/10 08:16:56;;;;;;;42.03;34.05;;;10.30;85.20;;;;;;5008502;28;20039;-72
2021/10/10 08:19:22;;;;;;;42.83;34.28;;;10.30;84.80;;;;;;5008827;28;20046;-74
2021/10/10 08:21:49;;;;;;;38.97;34.72;;;10.40;85.00;;;;;;5006728;28;20041;-78
2021/10/10 08:24:17;;;;;;;48.00;35.92;;;10.50;84.80;;;;;;5005745;28;21326;-73
2021/10/10 08:26:42;;;;;;;45.13;35.63;;;10.60;84.40;;;;;;5008248;28;20555;-71
2021/10/10 08:29:08;;;;;;;44.25;36.58;;;10.60;84.30;;;;;;5007092;28;20050;-72
2021/10/10 08:31:34;;;;;;;47.65;36.95;;;10.50;84.80;;;;;;4991704;28;20061;-74
2021/10/10 08:34:00;;;;;;;46.40;36.63;;;10.60;84.70;;;;;;5010027;28;20481;-73
2021/10/10 08:36:25;;;;;;;46.67;36.80;;;10.60;85.30;;;;;;5008691;28;20109;-72
2021/10/10 08:38:51;;;;;;;49.72;38.50;;;10.70;85.10;;;;;;5006726;28;20505;-71
2021/10/10 08:41:23;;;;;;;44.72;37.90;;;10.70;85.30;;;;;;5010990;28;20060;-71
2021/10/10 08:43:50;;;;;;;47.45;39.22;;;10.70;85.30;;;;;;5008494;28;20038;-72
2021/10/10 08:46:23;;;;;;;50.47;40.47;;;10.90;85.50;;;;;;4993474;28;20045;-72
2021/10/10 08:48:51;;;;;;;50.83;42.08;;;11.10;85.70;;;;;;5007894;28;20398;-71
2021/10/10 08:51:18;;;;;;;51.72;41.80;;;11.10;85.30;;;;;;5010593;28;20554;-72
2021/10/10 08:53:44;;;;;;;55.28;43.40;;;11.30;85.20;;;;;;5009833;28;20535;-72
2021/10/10 08:56:10;;;;;;;55.25;43.97;;;11.50;84.70;;;;;;5010416;28;20038;-72
2021/10/10 08:58:41;;;;;;;54.33;43.65;;;11.70;84.90;;;;;;5008434;28;20053;-72
2021/10/10 09:01:15;;;;;;;56.20;43.72;;;11.90;84.50;;;;;;5018491;28;20117;-72
2021/10/10 09:03:47;;;;;;;51.92;40.38;;;12.00;83.60;;;;;;5011937;28;20117;-72
2021/10/10 09:06:12;;;;;;;54.30;42.15;;;12.20;83.20;;;;;;5008690;28;20038;-70
2021/10/10 09:08:38;;;;;;;56.10;44.53;;;12.30;82.90;;;;;;5007534;28;20553;-72
2021/10/10 09:11:04;;;;;;;55.30;42.67;;;12.20;82.20;;;;;;5010444;28;20034;-72
2021/10/10 09:13:38;;;;;;;57.28;45.63;;;12.20;83.30;;;;;;5009782;28;20473;-73
2021/10/10 09:16:06;;;;;;;59.73;47.60;;;12.20;83.00;;;;;;5009454;28;20050;-81
2021/10/10 09:18:38;;;;;;;61.58;48.92;;;12.20;83.90;;;;;;5006907;28;20037;-74
2021/10/10 09:21:17;;;;;;;68.45;50.47;;;12.20;83.90;;;;;;5008191;28;20046;-72
2021/10/10 09:23:51;;;;;;;65.20;52.55;;;12.50;84.30;;;;;;5009028;28;20045;-74
2021/10/10 09:26:18;;;;;;;59.23;48.30;;;12.60;83.70;;;;;;5006410;28;20109;-73
2021/10/10 09:28:44;;;;;;;58.38;46.85;;;12.60;82.80;;;;;;5007900;28;20034;-74
2021/10/10 09:31:10;;;;;;;64.22;48.25;;;12.40;82.70;;;;;;5009675;28;20416;-70
2021/10/10 09:33:42;;;;;;;62.65;50.63;;;12.40;83.20;;;;;;5007975;28;20088;-70
2021/10/10 09:36:17;;;;;;;65.35;51.33;;;12.30;84.00;;;;;;5006668;28;20072;-70
2021/10/10 09:39:08;;;;;;;;;;;12.60;84.80;;;;;;5006677;28;20030;-70
2021/10/10 09:41:41;;;;;;;64.68;50.90;;;12.90;84.80;;;;;;5005598;28;19919;-70
2021/10/10 09:46:37;;;;;;;62.67;51.22;;;13.50;81.90;;;;;;5007324;28;20046;-70
2021/10/10 09:49:34;;;;;;;62.47;49.40;;;13.80;81.20;;;;;;5005951;28;20045;-73
2021/10/10 09:52:09;;;;;;;63.35;49.63;;;14.10;80.40;;;;;;4989810;28;20038;-70
2021/10/10 09:54:48;;;;;;;69.53;53.65;;;14.30;80.00;;;;;;5007510;28;20038;-69
2021/10/10 09:57:14;;;;;;;68.10;52.85;;;14.60;78.90;;;;;;5006437;28;20033;-72
2021/10/10 09:59:39;;;;;;;63.33;51.72;;;14.80;77.90;;;;;;5006102;28;20104;-71
2021/10/10 10:02:05;;;;;;;64.63;51.58;;;15.00;78.10;;;;;;5008032;28;20042;-75
2021/10/10 10:04:47;;;;;;;69.47;56.65;;;15.20;77.90;;;;;;5006944;28;20038;-72
2021/10/10 10:07:15;;;;;;;70.25;56.85;;;15.30;76.00;;;;;;5007003;28;20033;-71
2021/10/10 10:09:41;;;;;;;69.25;54.42;;;15.20;77.40;;;;;;5006077;28;20478;-74
2021/10/10 10:12:08;;;;;;;79.07;60.00;;;15.20;77.90;;;;;;5005937;28;20046;-71
2021/10/10 10:14:34;;;;;;;81.35;62.72;;;15.40;78.10;;;;;;5007464;28;20041;-71
2021/10/10 10:17:02;;;;;;;81.05;63.20;;;15.50;77.80;;;;;;5007910;28;20120;-70
2021/10/10 10:19:29;;;;;;;83.68;65.20;;;15.70;77.80;;;;;;4990012;28;20682;-74
2021/10/10 10:21:57;;;;;;;85.20;66.13;;;15.80;77.40;;;;;;5003719;28;20042;-73
2021/10/10 10:24:24;;;;;;;86.22;66.93;;;15.70;76.60;;;;;;5006436;28;20041;-75
2021/10/10 10:26:51;;;;;;;88.40;67.10;;;15.60;77.60;;;;;;5006672;28;20033;-73
2021/10/10 10:29:26;;;;;;;84.00;64.95;;;15.60;78.40;;;;;;5006717;28;20042;-74
2021/10/10 10:31:57;;;;;;;78.13;63.50;;;16.00;78.20;;;;;;5006647;28;20054;-73
2021/10/10 10:34:31;;;;;;;75.97;61.20;;;16.10;77.30;;;;;;5004876;28;20038;-73
2021/10/10 10:37:09;;;;;;;75.57;60.93;;;16.30;77.00;;;;;;5004592;28;20042;-73
2021/10/10 10:39:48;;;;;;;73.75;62.03;;;16.10;77.10;;;;;;5004073;28;20283;-73
2021/10/10 10:42:37;;;;;;;72.55;59.17;;;16.10;77.90;;;;;;5002536;28;20432;-74
2021/10/10 10:45:17;;;;;;;76.30;64.15;;;15.90;78.20;;;;;;5004015;28;20076;-73
2021/10/10 10:47:42;;;;;;;79.05;63.85;;;15.80;78.80;;;;;;5002488;28;20046;-74
2021/10/10 10:50:22;;;;;;;75.95;63.28;;;15.80;78.00;;;;;;5005789;28;21018;-72
2021/10/10 10:53:08;;;;;;;83.30;67.05;;;16.10;77.80;;;;;;5005320;28;20481;-72
2021/10/10 10:55:35;;;;;;;77.28;64.30;;;16.30;78.20;;;;;;5000498;28;20030;-74
2021/10/10 10:58:13;;;;;;;74.05;60.60;;;16.60;76.80;;;;;;5008775;28;20045;-74
2021/10/10 11:00:50;;;;;;;81.85;67.85;;;16.70;77.00;;;;;;5013146;28;20044;-73
2021/10/10 11:03:18;;;;;;;75.75;62.17;;;16.80;76.00;;;;;;5006454;28;20397;-77
2021/10/10 11:05:54;;;;;;;77.85;63.28;;;17.10;75.80;;;;;;5005594;28;20061;-73
2021/10/10 11:08:26;;;;;;;77.22;63.80;;;17.30;73.80;;;;;;5010670;28;20662;-72
2021/10/10 11:11:03;;;;;;;75.25;62.45;;;17.40;73.30;;;;;;5009202;28;20050;-73
2021/10/10 11:13:35;;;;;;;74.90;60.83;;;17.50;73.50;;;;;;5009288;28;20637;-73
2021/10/10 11:16:12;;;;;;;72.63;57.58;;;17.50;72.60;;;;;;4992376;28;20045;-73
2021/10/10 11:18:50;;;;;;;75.38;59.75;;;17.80;72.40;;;;;;5011876;28;20049;-74
2021/10/10 11:21:23;;;;;;;72.10;58.17;;;17.90;71.90;;;;;;5011444;28;20042;-73
2021/10/10 11:23:53;;;;;;;74.97;58.63;;;18.10;70.80;;;;;;5011362;28;20065;-73
2021/10/10 11:26:20;;;;;;;72.43;58.08;;;18.10;70.10;;;;;;5010945;28;20042;-74
2021/10/10 11:28:51;;;;;;;77.30;60.97;;;18.20;70.40;;;;;;5005422;28;20125;-73
2021/10/10 11:31:21;;;;;;;79.25;60.65;;;18.10;70.50;;;;;;5012899;28;20041;-73
2021/10/10 11:33:55;;;;;;;72.55;61.17;;;18.00;70.10;;;;;;5011670;28;20499;-73
2021/10/10 11:36:33;;;;;;;72.00;59.78;;;18.00;69.80;;;;;;5012514;28;20049;-70
2021/10/10 11:38:59;;;;;;;79.60;62.08;;;18.00;69.80;;;;;;5003865;28;20111;-71
2021/10/10 11:41:27;;;;;;;75.95;60.90;;;18.00;70.30;;;;;;5012155;28;20042;-72
2021/10/10 11:44:04;;;;;;;74.38;60.15;;;18.00;70.00;;;;;;5012489;28;20112;-71
2021/10/10 11:46:45;;;;;;;67.47;56.88;;;18.10;71.40;;;;;;5011163;28;20057;-71
2021/10/10 11:49:41;;;;;;;71.05;58.40;;;18.50;70.60;;;;;;5011219;28;20501;-71
2021/10/10 11:52:24;;;;;;;74.35;59.90;;;18.60;68.00;;;;;;4992854;28;20500;-71
2021/10/10 11:57:51;;;;;;;72.35;60.20;;;18.70;69.60;;;;;;5010412;28;20042;-71
2021/10/10 12:00:19;;;;;;;71.80;57.85;;;18.30;68.20;;;;;;5010186;28;20034;-75
2021/10/10 12:02:47;;;;;;;71.55;59.97;;;18.30;68.50;;;;;;5012470;28;20034;-76
2021/10/10 12:05:16;;;;;;;72.93;60.25;;;18.10;68.30;;;;;;5009157;28;20115;-73
2021/10/10 12:07:43;;;;;;;69.70;57.88;;;18.10;69.20;;;;;;5012145;28;20037;-71
2021/10/10 12:10:14;;;;;;;67.88;57.50;;;18.10;66.40;;;;;;5004019;28;20031;-72
2021/10/10 12:12:39;;;;;;;71.90;57.70;;;17.90;66.50;;;;;;5000797;28;20820;-71
2021/10/10 12:15:06;;;;;;;70.97;58.08;;;18.10;66.80;;;;;;5008009;28;20038;-72
2021/10/10 12:17:40;;;;;;;72.70;60.03;;;17.90;68.20;;;;;;5009694;28;20029;-71
2021/10/10 12:20:18;;;;;;;77.00;63.50;;;17.90;69.30;;;;;;4991176;28;20110;-72
2021/10/10 12:23:07;;;;;;;76.03;62.88;;;17.80;68.90;;;;;;5008231;28;20539;-78
2021/10/10 12:25:38;;;;;;;73.63;62.60;;;17.70;69.50;;;;;;5005573;28;20116;-74
2021/10/10 12:28:15;;;;;;;79.03;64.28;;;17.60;69.60;;;;;;5008444;28;20100;-73
2021/10/10 12:30:57;;;;;;;83.57;66.25;;;17.80;70.70;;;;;;5004857;28;20038;-72
2021/10/10 12:33:28;;;;;;;75.22;61.92;;;17.80;70.90;;;;;;5004112;28;20373;-72
2021/10/10 12:35:59;;;;;;;75.22;64.78;;;17.90;70.80;;;;;;5007860;28;20033;-73
2021/10/10 12:38:28;;;;;;;79.75;65.75;;;17.80;70.00;;;;;;5004659;28;20038;-72
2021/10/10 12:40:54;;;;;;;78.85;66.68;;;17.70;70.10;;;;;;5003527;28;20165;-74
2021/10/10 12:43:39;;;;;;;69.85;60.85;;;17.70;70.90;;;;;;4988337;28;20112;-72
2021/10/10 12:46:05;;;;;;;77.40;65.80;;;17.70;70.70;;;;;;5004277;28;20038;-73
2021/10/10 12:48:30;;;;;;;77.60;63.65;;;17.60;70.70;;;;;;5007924;28;20378;-76
2021/10/10 12:50:57;;;;;;;75.93;63.53;;;17.60;70.90;;;;;;5005460;28;20325;-72